FA35 weather

Lindbergh's Landing Airport
Miami, Florida, United States

Public forecast

Using degrees Fahrenheit for public forecast. Weather courtesy of forecast.io.

METAR (pilot weather report)

Closest report is Kendall-Tamiami Executive Airport, 3.5 nm (6.4 km) ENE. Retrieved 2019/07/19 10:53 UTC (28 minutes ago):

KTMB 191053Z 09004KT 10SM CLR 26/23 A3005 RMK AO2 SLP174 T02560228 $

TAF (pilot weather forecast)

Closest forecast is Kendall-Tamiami Executive Airport, 3.5 nm (6.4 km) ENE. Retrieved 2019/07/19 06:30 UTC (5 hours ago):

TAF KTMB 190529Z 1906/2006 08004KT P6SM VCSH SCT025 BKN150 FM191300 13010KT P6SM VCSH SCT025 BKN150 FM191700 12009KT P6SM SCT030 BKN250